createdAt,value
2018-02-07T21:41:52.966Z,34.03
2018-02-07T21:44:20.331Z,40.65
2018-02-07T21:49:14.587Z,37.10
2018-02-07T21:51:41.735Z,38.97
2018-02-07T21:54:08.912Z,38.40
2018-02-07T21:56:36.407Z,41.42
2018-02-07T22:01:31.251Z,42.00
2018-02-07T22:03:58.688Z,40.87
2018-02-07T22:06:26.315Z,43.83
2018-02-07T22:08:53.742Z,44.60
2018-02-07T22:11:21.384Z,47.23
2018-02-07T22:13:48.725Z,39.70
2018-02-07T22:16:16.365Z,41.30
2018-02-07T22:18:43.770Z,37.37
2018-02-07T22:21:11.661Z,41.73
2018-02-07T22:23:39.193Z,37.53
2018-02-07T22:26:06.653Z,38.10
2018-02-07T22:28:34.364Z,39.80
2018-02-07T22:31:01.779Z,36.00
2018-02-07T22:33:29.588Z,30.20
2018-02-07T22:35:56.800Z,32.97
2018-02-07T22:38:24.639Z,33.33
2018-02-07T22:40:52.368Z,31.57
2018-02-07T22:43:19.771Z,29.47
2018-02-07T22:45:47.655Z,29.33
2018-02-07T22:48:15.232Z,29.27
2018-02-07T22:53:10.260Z,31.30
2018-02-07T22:55:37.701Z,32.93
2018-02-07T22:58:05.418Z,36.10
2018-02-07T23:00:32.725Z,39.13
2018-02-07T23:03:00.171Z,35.27
2018-02-07T23:07:54.774Z,40.73
2018-02-07T23:10:22.393Z,42.57
2018-02-07T23:12:49.712Z,44.17
2018-02-07T23:15:17.253Z,46.87
2018-02-07T23:17:44.638Z,40.30
2018-02-07T23:20:11.931Z,42.63
2018-02-07T23:25:06.706Z,34.00
2018-02-07T23:27:34.229Z,33.83
2018-02-07T23:30:01.689Z,29.20
2018-02-07T23:32:29.210Z,31.20
2018-02-07T23:34:56.688Z,26.73
2018-02-07T23:37:24.246Z,30.30
2018-02-07T23:39:51.682Z,29.67
2018-02-07T23:42:19.343Z,28.67
2018-02-07T23:44:46.715Z,27.50
2018-02-07T23:47:14.370Z,25.33
2018-02-07T23:49:41.689Z,27.53
2018-02-07T23:52:09.337Z,27.03
2018-02-07T23:54:36.708Z,26.37
2018-02-07T23:57:04.224Z,24.43
